ALA502 LUKK-UWKD
Flight info
| Callsign | ALA502 |
|---|---|
| Flight time | 3h 18m |
| Altitude | 35000 |
| Route | ANEDO M860 KUGOS/N0456F350 DCT RUVOM N743 ODIRA/K0850F350 G900 RASOK/K0846F370 G900 KUTON/K0848F360 G900 OBABI/K0839F370 G900 KR P135 DAFOS T789 BMK T173 AGUTO T789 SONUM SONUM1Q |
| Aircraft | A320/M-SDE3FGHIRWY/LB1 |
Departure
| Time | 2026-05-07 15:29 |
|---|---|
| Airport | Chişinău International Airport (LUKK) |
Arrival
| Time | 2026-05-07 18:48 |
|---|---|
| Airport | Kazan International Airport (UWKD) |
| Time | Latitude | Longitude | Altitude | Speed | Heading |
|---|---|---|---|---|---|
| 2026-05-07 14:37 | 46.93369 | 28.93673 | 408 ft | 0 kts | 7° |
| 2026-05-07 15:18 | 46.93371 | 28.93673 | 435 ft | 1 kts | 7° |
| 2026-05-07 15:18 | 46.93376 | 28.93674 | 435 ft | 0 kts | 7° |
| 2026-05-07 15:19 | 46.93392 | 28.93674 | 408 ft | 4 kts | 351° |
| 2026-05-07 15:19 | 46.93411 | 28.93624 | 408 ft | 7 kts | 282° |
| 2026-05-07 15:19 | 46.93416 | 28.93566 | 408 ft | 5 kts | 276° |
| 2026-05-07 15:19 | 46.93418 | 28.93524 | 408 ft | 3 kts | 270° |
| 2026-05-07 15:20 | 46.93404 | 28.93492 | 406 ft | 5 kts | 216° |
| 2026-05-07 15:20 | 46.93366 | 28.93482 | 404 ft | 6 kts | 188° |
| 2026-05-07 15:20 | 46.93322 | 28.93473 | 408 ft | 7 kts | 187° |
| 2026-05-07 15:20 | 46.93271 | 28.93464 | 408 ft | 8 kts | 187° |
| 2026-05-07 15:21 | 46.93218 | 28.93455 | 409 ft | 8 kts | 186° |
| 2026-05-07 15:21 | 46.93172 | 28.93441 | 408 ft | 6 kts | 207° |
| 2026-05-07 15:21 | 46.93155 | 28.93387 | 410 ft | 7 kts | 271° |
| 2026-05-07 15:21 | 46.93161 | 28.93311 | 410 ft | 7 kts | 276° |
| 2026-05-07 15:22 | 46.93166 | 28.93247 | 410 ft | 6 kts | 278° |
| 2026-05-07 15:22 | 46.93171 | 28.93196 | 407 ft | 6 kts | 277° |
| 2026-05-07 15:22 | 46.93178 | 28.93111 | 410 ft | 11 kts | 277° |
| 2026-05-07 15:22 | 46.93189 | 28.92979 | 409 ft | 14 kts | 277° |
| 2026-05-07 15:23 | 46.93200 | 28.92847 | 406 ft | 12 kts | 277° |
| 2026-05-07 15:23 | 46.93210 | 28.92729 | 407 ft | 11 kts | 277° |
| 2026-05-07 15:23 | 46.93220 | 28.92623 | 406 ft | 10 kts | 277° |
| 2026-05-07 15:23 | 46.93228 | 28.92525 | 404 ft | 9 kts | 276° |
| 2026-05-07 15:24 | 46.93235 | 28.92441 | 405 ft | 7 kts | 276° |
| 2026-05-07 15:24 | 46.93240 | 28.92375 | 406 ft | 7 kts | 277° |
| 2026-05-07 15:24 | 46.93248 | 28.92286 | 407 ft | 11 kts | 277° |
| 2026-05-07 15:24 | 46.93258 | 28.92159 | 407 ft | 13 kts | 277° |
| 2026-05-07 15:25 | 46.93258 | 28.92081 | 407 ft | 11 kts | 254° |
| 2026-05-07 15:25 | 46.93203 | 28.92023 | 408 ft | 10 kts | 196° |
| 2026-05-07 15:25 | 46.93138 | 28.91998 | 408 ft | 10 kts | 193° |
| 2026-05-07 15:25 | 46.93066 | 28.91989 | 408 ft | 11 kts | 180° |
| 2026-05-07 15:26 | 46.92989 | 28.91991 | 408 ft | 12 kts | 178° |
| 2026-05-07 15:26 | 46.92906 | 28.91995 | 408 ft | 11 kts | 178° |
| 2026-05-07 15:26 | 46.92883 | 28.91996 | 408 ft | 0 kts | 178° |
| 2026-05-07 15:26 | 46.92877 | 28.91996 | 408 ft | 1 kts | 178° |
| 2026-05-07 15:27 | 46.92862 | 28.91997 | 408 ft | 3 kts | 178° |
| 2026-05-07 15:27 | 46.92839 | 28.91998 | 408 ft | 4 kts | 178° |
| 2026-05-07 15:27 | 46.92812 | 28.91999 | 408 ft | 4 kts | 178° |
| 2026-05-07 15:27 | 46.92783 | 28.92002 | 409 ft | 4 kts | 172° |
| 2026-05-07 15:28 | 46.92760 | 28.92032 | 409 ft | 5 kts | 109° |
| 2026-05-07 15:28 | 46.92759 | 28.92059 | 409 ft | 3 kts | 93° |
| 2026-05-07 15:28 | 46.92763 | 28.92290 | 408 ft | 57 kts | 88° |
| 2026-05-07 15:28 | 46.92783 | 28.93259 | 407 ft | 131 kts | 89° |
| 2026-05-07 15:29 | 46.92811 | 28.94876 | 416 ft | 184 kts | 87° |
| 2026-05-07 15:29 | 46.92859 | 28.96804 | 985 ft | 197 kts | 94° |
| 2026-05-07 15:29 | 46.92924 | 28.98816 | 1864 ft | 196 kts | 93° |
| 2026-05-07 15:29 | 46.92962 | 29.00839 | 2634 ft | 207 kts | 95° |
| 2026-05-07 15:30 | 46.92990 | 29.03064 | 3010 ft | 230 kts | 93° |
| 2026-05-07 15:30 | 46.92914 | 29.05506 | 3342 ft | 249 kts | 110° |
| 2026-05-07 15:30 | 46.92012 | 29.07642 | 3950 ft | 251 kts | 139° |
| 2026-05-07 15:30 | 46.90653 | 29.09243 | 4723 ft | 252 kts | 147° |
| 2026-05-07 15:31 | 46.89169 | 29.10676 | 5410 ft | 259 kts | 148° |
| 2026-05-07 15:31 | 46.87649 | 29.12116 | 6203 ft | 261 kts | 148° |
| 2026-05-07 15:31 | 46.86136 | 29.13615 | 6946 ft | 265 kts | 146° |
| 2026-05-07 15:31 | 46.84614 | 29.15197 | 7567 ft | 272 kts | 145° |
| 2026-05-07 15:32 | 46.83078 | 29.16858 | 8266 ft | 276 kts | 144° |
| 2026-05-07 15:32 | 46.81542 | 29.18560 | 9016 ft | 279 kts | 144° |
| 2026-05-07 15:32 | 46.79996 | 29.20295 | 9759 ft | 282 kts | 143° |
| 2026-05-07 15:32 | 46.78430 | 29.22063 | 10325 ft | 291 kts | 143° |
| 2026-05-07 15:33 | 46.76765 | 29.23944 | 10492 ft | 314 kts | 142° |
| 2026-05-07 15:33 | 46.74979 | 29.25965 | 10622 ft | 336 kts | 143° |
| 2026-05-07 15:33 | 46.73069 | 29.28125 | 10745 ft | 357 kts | 142° |
| 2026-05-07 15:33 | 46.71061 | 29.30390 | 10997 ft | 372 kts | 142° |
| 2026-05-07 15:34 | 46.68994 | 29.32721 | 11499 ft | 378 kts | 142° |
| 2026-05-07 15:34 | 46.66899 | 29.35077 | 12052 ft | 383 kts | 142° |
| 2026-05-07 15:34 | 46.64781 | 29.37455 | 12622 ft | 387 kts | 142° |
| 2026-05-07 15:34 | 46.62639 | 29.39861 | 13195 ft | 391 kts | 142° |
| 2026-05-07 15:35 | 46.60478 | 29.42287 | 13739 ft | 395 kts | 142° |
| 2026-05-07 15:35 | 46.58290 | 29.44741 | 14231 ft | 399 kts | 142° |
| 2026-05-07 15:35 | 46.56085 | 29.47208 | 14728 ft | 402 kts | 142° |
| 2026-05-07 15:35 | 46.53863 | 29.49690 | 15240 ft | 404 kts | 142° |
| 2026-05-07 15:36 | 46.51623 | 29.52190 | 15677 ft | 408 kts | 142° |
| 2026-05-07 15:36 | 46.49367 | 29.54709 | 16155 ft | 411 kts | 142° |
| 2026-05-07 15:36 | 46.47098 | 29.57241 | 16643 ft | 413 kts | 142° |
| 2026-05-07 15:36 | 46.44808 | 29.59788 | 17095 ft | 417 kts | 142° |
| 2026-05-07 15:37 | 46.42500 | 29.62350 | 17565 ft | 419 kts | 142° |
| 2026-05-07 15:37 | 46.40211 | 29.64889 | 18005 ft | 422 kts | 142° |
| 2026-05-07 15:37 | 46.37839 | 29.67520 | 18434 ft | 425 kts | 142° |
| 2026-05-07 15:37 | 46.35503 | 29.70153 | 18824 ft | 427 kts | 140° |
| 2026-05-07 15:38 | 46.33233 | 29.72944 | 19189 ft | 430 kts | 137° |
| 2026-05-07 15:38 | 46.31040 | 29.75834 | 19531 ft | 433 kts | 136° |
| 2026-05-07 15:38 | 46.28811 | 29.78877 | 19889 ft | 437 kts | 135° |
| 2026-05-07 15:38 | 46.26628 | 29.81874 | 20204 ft | 441 kts | 135° |
| 2026-05-07 15:39 | 46.24390 | 29.84917 | 20534 ft | 444 kts | 136° |
| 2026-05-07 15:39 | 46.22114 | 29.87959 | 20882 ft | 447 kts | 136° |
| 2026-05-07 15:39 | 46.19810 | 29.90992 | 21246 ft | 449 kts | 136° |
| 2026-05-07 15:39 | 46.17482 | 29.94028 | 21560 ft | 452 kts | 137° |
| 2026-05-07 15:40 | 46.15144 | 29.97063 | 21966 ft | 453 kts | 137° |
| 2026-05-07 15:40 | 46.12798 | 30.00106 | 22303 ft | 455 kts | 136° |
| 2026-05-07 15:40 | 46.10440 | 30.03170 | 22617 ft | 457 kts | 137° |
| 2026-05-07 15:40 | 46.08069 | 30.06255 | 22906 ft | 461 kts | 136° |
| 2026-05-07 15:41 | 46.05683 | 30.09363 | 23199 ft | 464 kts | 137° |
| 2026-05-07 15:41 | 46.03285 | 30.12482 | 23530 ft | 466 kts | 136° |
| 2026-05-07 15:41 | 46.00874 | 30.15615 | 23839 ft | 468 kts | 136° |
| 2026-05-07 15:41 | 45.98454 | 30.18757 | 24089 ft | 470 kts | 137° |
| 2026-05-07 15:42 | 45.96020 | 30.21909 | 24337 ft | 472 kts | 136° |
| 2026-05-07 15:42 | 45.93575 | 30.25069 | 24599 ft | 474 kts | 137° |
| 2026-05-07 15:42 | 45.91119 | 30.28237 | 24850 ft | 476 kts | 137° |
| 2026-05-07 15:42 | 45.88650 | 30.31422 | 25078 ft | 478 kts | 137° |
| 2026-05-07 15:43 | 45.86176 | 30.34614 | 25309 ft | 479 kts | 137° |
| 2026-05-07 15:43 | 45.83689 | 30.37818 | 25534 ft | 481 kts | 137° |
| 2026-05-07 15:43 | 45.81191 | 30.41030 | 25758 ft | 483 kts | 137° |
| 2026-05-07 15:43 | 45.78683 | 30.44249 | 25978 ft | 485 kts | 137° |
| 2026-05-07 15:44 | 45.76161 | 30.47477 | 26202 ft | 487 kts | 136° |
| 2026-05-07 15:44 | 45.73624 | 30.50718 | 26398 ft | 490 kts | 136° |
| 2026-05-07 15:44 | 45.71077 | 30.53968 | 26625 ft | 491 kts | 137° |
| 2026-05-07 15:44 | 45.68527 | 30.57220 | 26910 ft | 491 kts | 137° |
| 2026-05-07 15:45 | 45.65980 | 30.60472 | 27205 ft | 491 kts | 137° |
| 2026-05-07 15:45 | 45.63435 | 30.63723 | 27503 ft | 491 kts | 137° |
| 2026-05-07 15:45 | 45.60886 | 30.66971 | 27810 ft | 491 kts | 137° |
| 2026-05-07 15:45 | 45.58337 | 30.70210 | 28119 ft | 491 kts | 136° |
| 2026-05-07 15:46 | 45.53223 | 30.76703 | 28683 ft | 492 kts | 136° |
| 2026-05-07 15:46 | 45.50664 | 30.79952 | 28981 ft | 492 kts | 136° |
| 2026-05-07 15:46 | 45.48107 | 30.83188 | 29277 ft | 492 kts | 136° |
| 2026-05-07 15:47 | 45.45542 | 30.86428 | 29568 ft | 492 kts | 136° |
| 2026-05-07 15:47 | 45.42979 | 30.89662 | 29865 ft | 493 kts | 136° |
| 2026-05-07 15:47 | 45.40415 | 30.92890 | 30182 ft | 493 kts | 136° |
| 2026-05-07 15:47 | 45.37844 | 30.96119 | 30438 ft | 493 kts | 136° |
| 2026-05-07 15:48 | 45.35278 | 30.99341 | 30688 ft | 492 kts | 136° |
| 2026-05-07 15:48 | 45.32705 | 31.02561 | 30936 ft | 492 kts | 136° |
| 2026-05-07 15:48 | 45.30138 | 31.05771 | 31206 ft | 492 kts | 136° |
| 2026-05-07 15:48 | 45.27568 | 31.08981 | 31481 ft | 491 kts | 136° |
| 2026-05-07 15:49 | 45.25009 | 31.12181 | 31760 ft | 490 kts | 136° |
| 2026-05-07 15:49 | 45.22469 | 31.15404 | 32047 ft | 489 kts | 136° |
| 2026-05-07 15:49 | 45.19955 | 31.18643 | 32329 ft | 489 kts | 135° |
| 2026-05-07 15:49 | 45.17451 | 31.21900 | 32588 ft | 488 kts | 135° |
| 2026-05-07 15:50 | 45.14953 | 31.25158 | 32847 ft | 488 kts | 135° |
| 2026-05-07 15:50 | 45.12455 | 31.28400 | 33108 ft | 487 kts | 135° |
| 2026-05-07 15:50 | 45.09950 | 31.31630 | 33371 ft | 487 kts | 135° |
| 2026-05-07 15:50 | 45.07443 | 31.34847 | 33637 ft | 486 kts | 135° |
| 2026-05-07 15:51 | 45.04933 | 31.38053 | 33900 ft | 486 kts | 136° |
| 2026-05-07 15:51 | 45.02424 | 31.41245 | 34162 ft | 485 kts | 135° |
| 2026-05-07 15:51 | 44.99916 | 31.44431 | 34392 ft | 485 kts | 136° |
| 2026-05-07 15:51 | 44.97410 | 31.47618 | 34597 ft | 485 kts | 136° |
| 2026-05-07 15:52 | 44.94910 | 31.50801 | 34801 ft | 484 kts | 136° |
| 2026-05-07 15:52 | 44.92413 | 31.53987 | 35017 ft | 484 kts | 136° |
| 2026-05-07 15:52 | 44.89916 | 31.57170 | 35145 ft | 484 kts | 136° |
| 2026-05-07 15:53 | 44.84899 | 31.63550 | 35171 ft | 486 kts | 136° |
| 2026-05-07 15:53 | 44.79864 | 31.69915 | 35169 ft | 486 kts | 136° |
| 2026-05-07 15:54 | 44.74819 | 31.76272 | 35173 ft | 486 kts | 136° |
| 2026-05-07 15:54 | 44.69779 | 31.82618 | 35169 ft | 486 kts | 136° |
| 2026-05-07 15:55 | 44.64737 | 31.88956 | 35188 ft | 486 kts | 136° |
| 2026-05-07 15:55 | 44.59709 | 31.95243 | 35162 ft | 486 kts | 136° |
| 2026-05-07 15:56 | 44.54650 | 32.01547 | 35172 ft | 487 kts | 136° |
| 2026-05-07 15:56 | 44.49555 | 32.07807 | 35181 ft | 487 kts | 137° |
| 2026-05-07 15:57 | 44.44418 | 32.13899 | 35189 ft | 487 kts | 138° |
| 2026-05-07 15:57 | 44.39223 | 32.19982 | 35187 ft | 487 kts | 138° |
| 2026-05-07 15:58 | 44.34011 | 32.26114 | 35179 ft | 486 kts | 138° |
| 2026-05-07 15:58 | 44.28885 | 32.32173 | 35193 ft | 486 kts | 138° |
| 2026-05-07 15:59 | 44.23735 | 32.38262 | 35176 ft | 485 kts | 138° |
| 2026-05-07 15:59 | 44.18574 | 32.44337 | 35169 ft | 485 kts | 138° |
| 2026-05-07 16:00 | 44.13413 | 32.50401 | 35192 ft | 485 kts | 138° |
| 2026-05-07 16:00 | 44.08308 | 32.56547 | 35186 ft | 485 kts | 137° |
| 2026-05-07 16:01 | 44.03237 | 32.62724 | 35190 ft | 485 kts | 137° |
| 2026-05-07 16:01 | 43.98149 | 32.68867 | 35182 ft | 484 kts | 137° |
| 2026-05-07 16:02 | 43.93049 | 32.74986 | 35198 ft | 484 kts | 137° |
| 2026-05-07 16:02 | 43.88424 | 32.81655 | 35189 ft | 477 kts | 118° |
| 2026-05-07 16:02 | 43.87045 | 32.85788 | 35189 ft | 470 kts | 103° |
| 2026-05-07 16:03 | 43.86285 | 32.90164 | 35179 ft | 467 kts | 98° |
| 2026-05-07 16:03 | 43.84908 | 32.98961 | 35184 ft | 468 kts | 98° |
| 2026-05-07 16:04 | 43.83766 | 33.07798 | 35179 ft | 463 kts | 90° |
| 2026-05-07 16:04 | 43.83301 | 33.16702 | 35178 ft | 464 kts | 90° |
| 2026-05-07 16:05 | 43.82837 | 33.25612 | 35176 ft | 464 kts | 90° |
| 2026-05-07 16:05 | 43.82356 | 33.34526 | 35179 ft | 464 kts | 91° |
| 2026-05-07 16:06 | 43.81869 | 33.43438 | 35192 ft | 464 kts | 91° |
| 2026-05-07 16:06 | 43.81376 | 33.52350 | 35193 ft | 464 kts | 91° |
| 2026-05-07 16:07 | 43.80887 | 33.61253 | 35195 ft | 464 kts | 91° |
| 2026-05-07 16:07 | 43.80374 | 33.70156 | 35187 ft | 464 kts | 91° |
| 2026-05-07 16:08 | 43.79941 | 33.77614 | 35192 ft | 464 kts | 91° |
| 2026-05-07 16:08 | 43.79425 | 33.86504 | 35203 ft | 463 kts | 91° |
| 2026-05-07 16:09 | 43.78907 | 33.95321 | 35199 ft | 462 kts | 91° |
| 2026-05-07 16:09 | 43.78381 | 34.04186 | 35190 ft | 462 kts | 91° |
| 2026-05-07 16:10 | 43.77849 | 34.13039 | 35193 ft | 462 kts | 91° |
| 2026-05-07 16:10 | 43.77305 | 34.21892 | 35213 ft | 462 kts | 91° |
| 2026-05-07 16:11 | 43.76753 | 34.30734 | 35205 ft | 461 kts | 91° |
| 2026-05-07 16:11 | 43.76198 | 34.39569 | 35204 ft | 461 kts | 92° |
| 2026-05-07 16:12 | 43.75636 | 34.48389 | 35199 ft | 460 kts | 92° |
| 2026-05-07 16:12 | 43.75066 | 34.57174 | 35204 ft | 460 kts | 92° |
| 2026-05-07 16:13 | 43.74488 | 34.65990 | 35213 ft | 460 kts | 92° |
| 2026-05-07 16:13 | 43.73906 | 34.74786 | 35210 ft | 459 kts | 92° |
| 2026-05-07 16:14 | 43.73329 | 34.83574 | 35210 ft | 459 kts | 92° |
| 2026-05-07 16:14 | 43.72745 | 34.92328 | 35207 ft | 459 kts | 92° |
| 2026-05-07 16:15 | 43.72142 | 35.01105 | 35217 ft | 458 kts | 92° |
| 2026-05-07 16:15 | 43.71534 | 35.09816 | 35213 ft | 458 kts | 92° |
| 2026-05-07 16:16 | 43.70924 | 35.18573 | 35210 ft | 458 kts | 92° |
| 2026-05-07 16:16 | 43.70308 | 35.27319 | 35210 ft | 457 kts | 92° |
| 2026-05-07 16:17 | 43.69677 | 35.36063 | 35207 ft | 457 kts | 92° |
| 2026-05-07 16:17 | 43.69037 | 35.44803 | 35222 ft | 457 kts | 94° |
| 2026-05-07 16:18 | 43.68405 | 35.53520 | 35217 ft | 456 kts | 94° |
| 2026-05-07 16:18 | 43.67770 | 35.62230 | 35212 ft | 455 kts | 94° |
| 2026-05-07 16:19 | 43.67122 | 35.70932 | 35211 ft | 455 kts | 94° |
| 2026-05-07 16:19 | 43.66469 | 35.79629 | 35208 ft | 455 kts | 94° |
| 2026-05-07 16:20 | 43.65798 | 35.88318 | 35213 ft | 455 kts | 94° |
| 2026-05-07 16:20 | 43.65136 | 35.97011 | 35208 ft | 455 kts | 94° |
| 2026-05-07 16:21 | 43.64455 | 36.05698 | 35208 ft | 455 kts | 94° |
| 2026-05-07 16:21 | 43.63781 | 36.14388 | 35206 ft | 455 kts | 94° |
| 2026-05-07 16:22 | 43.63096 | 36.23073 | 35211 ft | 455 kts | 94° |
| 2026-05-07 16:22 | 43.62403 | 36.31749 | 35218 ft | 455 kts | 94° |
| 2026-05-07 16:23 | 43.61699 | 36.40424 | 35217 ft | 455 kts | 94° |
| 2026-05-07 16:23 | 43.60993 | 36.49089 | 35214 ft | 454 kts | 94° |
| 2026-05-07 16:24 | 43.60286 | 36.57748 | 35212 ft | 454 kts | 94° |
| 2026-05-07 16:24 | 43.59742 | 36.66414 | 35220 ft | 451 kts | 84° |
| 2026-05-07 16:24 | 43.60293 | 36.70636 | 35218 ft | 446 kts | 69° |
| 2026-05-07 16:25 | 43.61611 | 36.74477 | 35213 ft | 442 kts | 54° |
| 2026-05-07 16:25 | 43.65403 | 36.81117 | 35207 ft | 441 kts | 50° |
| 2026-05-07 16:26 | 43.69251 | 36.87705 | 35208 ft | 441 kts | 50° |
| 2026-05-07 16:26 | 43.73063 | 36.94268 | 35208 ft | 441 kts | 50° |
| 2026-05-07 16:27 | 43.76892 | 37.00892 | 35208 ft | 441 kts | 50° |
| 2026-05-07 16:27 | 43.80721 | 37.07515 | 35219 ft | 440 kts | 51° |
| 2026-05-07 16:28 | 43.84538 | 37.14130 | 35221 ft | 439 kts | 51° |
| 2026-05-07 16:28 | 43.88348 | 37.20752 | 35220 ft | 439 kts | 51° |
| 2026-05-07 16:29 | 43.92150 | 37.27375 | 35218 ft | 439 kts | 51° |
| 2026-05-07 16:29 | 43.95944 | 37.33995 | 35221 ft | 438 kts | 51° |
| 2026-05-07 16:30 | 43.99725 | 37.40611 | 35219 ft | 437 kts | 51° |
| 2026-05-07 16:30 | 44.03497 | 37.47221 | 35218 ft | 436 kts | 51° |
| 2026-05-07 16:31 | 44.07258 | 37.53835 | 35216 ft | 436 kts | 51° |
| 2026-05-07 16:31 | 44.11011 | 37.60453 | 35213 ft | 435 kts | 51° |
| 2026-05-07 16:32 | 44.14756 | 37.67073 | 35211 ft | 435 kts | 52° |
| 2026-05-07 16:32 | 44.18492 | 37.73692 | 35209 ft | 435 kts | 52° |
| 2026-05-07 16:33 | 44.22229 | 37.80314 | 35213 ft | 434 kts | 52° |
| 2026-05-07 16:33 | 44.25955 | 37.86938 | 35212 ft | 434 kts | 52° |
| 2026-05-07 16:34 | 44.29670 | 37.93559 | 35210 ft | 433 kts | 52° |
| 2026-05-07 16:34 | 44.33379 | 38.00191 | 35209 ft | 433 kts | 52° |
| 2026-05-07 16:35 | 44.37083 | 38.06821 | 35201 ft | 433 kts | 52° |
| 2026-05-07 16:35 | 44.40786 | 38.13461 | 35201 ft | 433 kts | 52° |
| 2026-05-07 16:36 | 44.44480 | 38.20110 | 35200 ft | 433 kts | 52° |
| 2026-05-07 16:36 | 44.48171 | 38.26765 | 35190 ft | 432 kts | 52° |
| 2026-05-07 16:37 | 44.51846 | 38.33418 | 35205 ft | 431 kts | 52° |
| 2026-05-07 16:37 | 44.53685 | 38.36744 | 35346 ft | 431 kts | 52° |
| 2026-05-07 16:37 | 44.55520 | 38.40064 | 35570 ft | 431 kts | 52° |
| 2026-05-07 16:37 | 44.57354 | 38.43390 | 35742 ft | 431 kts | 52° |
| 2026-05-07 16:38 | 44.59186 | 38.46723 | 35889 ft | 432 kts | 52° |
| 2026-05-07 16:38 | 44.61021 | 38.50066 | 36051 ft | 433 kts | 52° |
| 2026-05-07 16:38 | 44.62861 | 38.53417 | 36176 ft | 434 kts | 52° |
| 2026-05-07 16:39 | 44.66545 | 38.60130 | 36176 ft | 434 kts | 52° |
| 2026-05-07 16:39 | 44.70232 | 38.66863 | 36176 ft | 434 kts | 52° |
| 2026-05-07 16:40 | 44.73907 | 38.73598 | 36172 ft | 434 kts | 52° |
| 2026-05-07 16:40 | 44.77779 | 38.80105 | 36168 ft | 434 kts | 43° |
| 2026-05-07 16:41 | 44.82625 | 38.85171 | 36170 ft | 434 kts | 35° |
| 2026-05-07 16:41 | 44.87580 | 38.90045 | 36166 ft | 435 kts | 36° |
| 2026-05-07 16:42 | 44.92532 | 38.94955 | 36164 ft | 435 kts | 36° |
| 2026-05-07 16:42 | 44.97494 | 38.99864 | 36154 ft | 435 kts | 36° |
| 2026-05-07 16:43 | 45.02457 | 39.04771 | 36173 ft | 435 kts | 36° |
| 2026-05-07 16:43 | 45.07416 | 39.09694 | 36168 ft | 436 kts | 36° |
| 2026-05-07 16:44 | 45.12370 | 39.14632 | 36176 ft | 436 kts | 36° |
| 2026-05-07 16:44 | 45.17328 | 39.19576 | 36174 ft | 436 kts | 36° |
| 2026-05-07 16:45 | 45.22284 | 39.24524 | 36168 ft | 436 kts | 36° |
| 2026-05-07 16:45 | 45.27236 | 39.29488 | 36166 ft | 436 kts | 36° |
| 2026-05-07 16:46 | 45.32185 | 39.34461 | 36160 ft | 436 kts | 36° |
| 2026-05-07 16:46 | 45.37139 | 39.39436 | 36147 ft | 436 kts | 36° |
| 2026-05-07 16:47 | 45.42065 | 39.44396 | 36155 ft | 436 kts | 36° |
| 2026-05-07 16:47 | 45.47013 | 39.49400 | 36152 ft | 437 kts | 36° |
| 2026-05-07 16:48 | 45.51965 | 39.54425 | 36148 ft | 437 kts | 36° |
| 2026-05-07 16:48 | 45.56901 | 39.59441 | 36151 ft | 437 kts | 36° |
| 2026-05-07 16:49 | 45.61843 | 39.64504 | 36149 ft | 437 kts | 36° |
| 2026-05-07 16:49 | 45.66768 | 39.69617 | 36146 ft | 438 kts | 36° |
| 2026-05-07 16:50 | 45.71696 | 39.74747 | 36153 ft | 438 kts | 36° |
| 2026-05-07 16:50 | 45.76628 | 39.79884 | 36152 ft | 438 kts | 36° |
| 2026-05-07 16:51 | 45.80727 | 39.84152 | 36154 ft | 438 kts | 36° |
| 2026-05-07 16:51 | 45.86498 | 39.90154 | 36153 ft | 439 kts | 36° |
| 2026-05-07 16:52 | 45.90612 | 39.94411 | 36153 ft | 439 kts | 36° |
| 2026-05-07 16:52 | 45.95562 | 39.99554 | 36153 ft | 439 kts | 36° |
| 2026-05-07 16:53 | 46.00512 | 40.04701 | 36154 ft | 439 kts | 36° |
| 2026-05-07 16:53 | 46.05458 | 40.09854 | 36151 ft | 439 kts | 36° |
| 2026-05-07 16:54 | 46.10401 | 40.15016 | 36147 ft | 439 kts | 36° |
| 2026-05-07 16:54 | 46.15345 | 40.20195 | 36149 ft | 439 kts | 36° |
| 2026-05-07 16:55 | 46.20286 | 40.25385 | 36140 ft | 439 kts | 36° |
| 2026-05-07 16:55 | 46.25227 | 40.30581 | 36141 ft | 440 kts | 36° |
| 2026-05-07 16:56 | 46.30172 | 40.35799 | 36142 ft | 440 kts | 36° |
| 2026-05-07 16:56 | 46.37586 | 40.43639 | 36145 ft | 440 kts | 36° |
| 2026-05-07 16:57 | 46.42501 | 40.48849 | 36142 ft | 440 kts | 36° |
| 2026-05-07 16:57 | 46.47476 | 40.54141 | 36138 ft | 441 kts | 36° |
| 2026-05-07 16:58 | 46.52384 | 40.59377 | 36139 ft | 441 kts | 36° |
| 2026-05-07 16:58 | 46.57324 | 40.64653 | 36134 ft | 441 kts | 36° |
| 2026-05-07 16:59 | 46.62255 | 40.69960 | 36131 ft | 441 kts | 36° |
| 2026-05-07 16:59 | 46.67159 | 40.75327 | 36127 ft | 441 kts | 36° |
| 2026-05-07 17:00 | 46.72060 | 40.80710 | 36130 ft | 441 kts | 36° |
| 2026-05-07 17:00 | 46.76941 | 40.86070 | 36127 ft | 441 kts | 36° |
| 2026-05-07 17:01 | 46.81846 | 40.91439 | 36122 ft | 441 kts | 36° |
| 2026-05-07 17:01 | 46.86802 | 40.96711 | 36121 ft | 441 kts | 35° |
| 2026-05-07 17:02 | 46.91704 | 41.01886 | 36102 ft | 430 kts | 35° |
| 2026-05-07 17:02 | 46.96533 | 41.07030 | 36094 ft | 428 kts | 36° |
| 2026-05-07 17:03 | 47.01341 | 41.12203 | 36094 ft | 429 kts | 36° |
| 2026-05-07 17:03 | 47.06143 | 41.17379 | 36089 ft | 429 kts | 36° |
| 2026-05-07 17:04 | 47.10948 | 41.22557 | 36088 ft | 428 kts | 35° |
| 2026-05-07 17:04 | 47.15751 | 41.27741 | 36082 ft | 429 kts | 36° |
| 2026-05-07 17:05 | 47.20555 | 41.32943 | 36081 ft | 429 kts | 36° |
| 2026-05-07 17:05 | 47.25352 | 41.38159 | 36077 ft | 429 kts | 36° |
| 2026-05-07 17:06 | 47.30160 | 41.43392 | 36077 ft | 430 kts | 36° |
| 2026-05-07 17:06 | 47.34928 | 41.48596 | 36072 ft | 430 kts | 36° |
| 2026-05-07 17:07 | 47.39733 | 41.53848 | 36072 ft | 430 kts | 35° |
| 2026-05-07 17:07 | 47.44542 | 41.59104 | 36069 ft | 430 kts | 36° |
| 2026-05-07 17:08 | 47.49342 | 41.64381 | 36063 ft | 430 kts | 36° |
| 2026-05-07 17:08 | 47.54144 | 41.69662 | 36063 ft | 430 kts | 35° |
| 2026-05-07 17:09 | 47.58948 | 41.74946 | 36057 ft | 430 kts | 35° |
| 2026-05-07 17:09 | 47.63747 | 41.80243 | 36059 ft | 430 kts | 36° |
| 2026-05-07 17:10 | 47.68541 | 41.85561 | 36050 ft | 431 kts | 36° |
| 2026-05-07 17:10 | 47.73346 | 41.90883 | 36045 ft | 431 kts | 35° |
| 2026-05-07 17:11 | 47.78146 | 41.96227 | 36043 ft | 431 kts | 36° |
| 2026-05-07 17:11 | 47.82941 | 42.01588 | 36031 ft | 431 kts | 36° |
| 2026-05-07 17:12 | 47.87741 | 42.06947 | 36027 ft | 431 kts | 36° |
| 2026-05-07 17:12 | 47.92538 | 42.12311 | 36030 ft | 431 kts | 36° |
| 2026-05-07 17:13 | 47.97324 | 42.17694 | 36032 ft | 431 kts | 36° |
| 2026-05-07 17:13 | 48.02115 | 42.23087 | 36034 ft | 431 kts | 36° |
| 2026-05-07 17:14 | 48.06910 | 42.28486 | 36031 ft | 431 kts | 36° |
| 2026-05-07 17:14 | 48.11697 | 42.33901 | 36023 ft | 431 kts | 36° |
| 2026-05-07 17:15 | 48.16476 | 42.39323 | 36024 ft | 431 kts | 36° |
| 2026-05-07 17:15 | 48.21256 | 42.44760 | 36024 ft | 431 kts | 36° |
| 2026-05-07 17:16 | 48.26035 | 42.50207 | 36021 ft | 432 kts | 36° |
| 2026-05-07 17:16 | 48.30814 | 42.55670 | 36015 ft | 432 kts | 36° |
| 2026-05-07 17:17 | 48.35585 | 42.61144 | 36014 ft | 432 kts | 36° |
| 2026-05-07 17:17 | 48.40356 | 42.66643 | 36010 ft | 432 kts | 36° |
| 2026-05-07 17:18 | 48.45123 | 42.72153 | 36018 ft | 432 kts | 36° |
| 2026-05-07 17:18 | 48.49887 | 42.77670 | 36012 ft | 432 kts | 36° |
| 2026-05-07 17:19 | 48.54675 | 42.83210 | 35969 ft | 436 kts | 36° |
| 2026-05-07 17:19 | 48.59501 | 42.88812 | 36092 ft | 440 kts | 37° |
| 2026-05-07 17:20 | 48.61927 | 42.91648 | 36209 ft | 441 kts | 37° |
| 2026-05-07 17:20 | 48.64352 | 42.94498 | 36360 ft | 442 kts | 37° |
| 2026-05-07 17:20 | 48.66778 | 42.97357 | 36518 ft | 442 kts | 37° |
| 2026-05-07 17:20 | 48.69210 | 43.00226 | 36692 ft | 443 kts | 37° |
| 2026-05-07 17:21 | 48.71639 | 43.03094 | 36837 ft | 443 kts | 37° |
| 2026-05-07 17:21 | 48.74066 | 43.05955 | 36980 ft | 443 kts | 37° |
| 2026-05-07 17:21 | 48.78937 | 43.11703 | 36994 ft | 443 kts | 37° |
| 2026-05-07 17:22 | 48.83798 | 43.17458 | 36994 ft | 443 kts | 37° |
| 2026-05-07 17:22 | 48.88642 | 43.23222 | 36994 ft | 443 kts | 37° |
| 2026-05-07 17:23 | 48.93489 | 43.29001 | 36991 ft | 443 kts | 37° |
| 2026-05-07 17:23 | 48.98337 | 43.34777 | 36993 ft | 443 kts | 37° |
| 2026-05-07 17:24 | 49.03192 | 43.40575 | 36992 ft | 444 kts | 37° |
| 2026-05-07 17:24 | 49.08049 | 43.46395 | 36992 ft | 444 kts | 37° |
| 2026-05-07 17:25 | 49.12896 | 43.52233 | 36998 ft | 444 kts | 37° |
| 2026-05-07 17:25 | 49.17749 | 43.58087 | 36991 ft | 445 kts | 37° |
| 2026-05-07 17:26 | 49.22606 | 43.63957 | 36995 ft | 445 kts | 37° |
| 2026-05-07 17:26 | 49.27588 | 43.69564 | 36989 ft | 444 kts | 31° |
| 2026-05-07 17:27 | 49.32851 | 43.74522 | 36986 ft | 444 kts | 31° |
| 2026-05-07 17:27 | 49.38119 | 43.79477 | 36987 ft | 445 kts | 31° |
| 2026-05-07 17:28 | 49.43361 | 43.84427 | 36993 ft | 445 kts | 31° |
| 2026-05-07 17:28 | 49.48627 | 43.89427 | 36988 ft | 445 kts | 31° |
| 2026-05-07 17:29 | 49.53893 | 43.94563 | 36989 ft | 445 kts | 33° |
| 2026-05-07 17:29 | 49.58960 | 44.00048 | 36991 ft | 446 kts | 35° |
| 2026-05-07 17:30 | 49.63981 | 44.05679 | 36986 ft | 446 kts | 35° |
| 2026-05-07 17:30 | 49.69023 | 44.11260 | 36986 ft | 446 kts | 34° |
| 2026-05-07 17:31 | 49.74053 | 44.16762 | 36981 ft | 446 kts | 34° |
| 2026-05-07 17:31 | 49.79154 | 44.22339 | 36981 ft | 446 kts | 34° |
| 2026-05-07 17:32 | 49.84216 | 44.27905 | 36987 ft | 446 kts | 34° |
| 2026-05-07 17:32 | 49.88413 | 44.32544 | 36985 ft | 446 kts | 35° |
| 2026-05-07 17:33 | 49.94282 | 44.39055 | 36980 ft | 446 kts | 35° |
| 2026-05-07 17:33 | 49.99336 | 44.44664 | 36984 ft | 446 kts | 35° |
| 2026-05-07 17:34 | 50.04391 | 44.50272 | 36980 ft | 447 kts | 35° |
| 2026-05-07 17:34 | 50.09446 | 44.55897 | 36980 ft | 447 kts | 35° |
| 2026-05-07 17:35 | 50.14496 | 44.61543 | 36986 ft | 447 kts | 35° |
| 2026-05-07 17:35 | 50.19541 | 44.67204 | 36984 ft | 447 kts | 35° |
| 2026-05-07 17:36 | 50.23728 | 44.71915 | 36980 ft | 447 kts | 35° |
| 2026-05-07 17:36 | 50.28761 | 44.77598 | 36980 ft | 447 kts | 35° |
| 2026-05-07 17:37 | 50.33797 | 44.83301 | 36979 ft | 447 kts | 35° |
| 2026-05-07 17:37 | 50.38830 | 44.89003 | 36975 ft | 447 kts | 35° |
| 2026-05-07 17:38 | 50.43867 | 44.94713 | 36975 ft | 447 kts | 35° |
| 2026-05-07 17:38 | 50.48901 | 45.00440 | 36975 ft | 447 kts | 35° |
| 2026-05-07 17:39 | 50.53928 | 45.06187 | 36975 ft | 447 kts | 35° |
| 2026-05-07 17:39 | 50.58957 | 45.11942 | 36978 ft | 447 kts | 35° |
| 2026-05-07 17:40 | 50.63986 | 45.17719 | 36973 ft | 448 kts | 35° |
| 2026-05-07 17:40 | 50.69016 | 45.23511 | 36972 ft | 448 kts | 35° |
| 2026-05-07 17:41 | 50.73997 | 45.29273 | 36950 ft | 442 kts | 36° |
| 2026-05-07 17:41 | 50.78991 | 45.35053 | 36958 ft | 446 kts | 36° |
| 2026-05-07 17:42 | 50.84012 | 45.40877 | 36945 ft | 448 kts | 36° |
| 2026-05-07 17:42 | 50.89007 | 45.46736 | 36950 ft | 447 kts | 37° |
| 2026-05-07 17:43 | 50.93911 | 45.52806 | 36953 ft | 447 kts | 38° |
| 2026-05-07 17:43 | 50.98743 | 45.58928 | 36951 ft | 448 kts | 38° |
| 2026-05-07 17:44 | 51.03739 | 45.64803 | 36964 ft | 447 kts | 28° |
| 2026-05-07 17:44 | 51.09342 | 45.69067 | 36954 ft | 447 kts | 24° |
| 2026-05-07 17:45 | 51.14972 | 45.73261 | 36953 ft | 447 kts | 25° |
| 2026-05-07 17:45 | 51.20594 | 45.77501 | 36954 ft | 447 kts | 25° |
| 2026-05-07 17:46 | 51.26218 | 45.81753 | 36958 ft | 447 kts | 25° |
| 2026-05-07 17:46 | 51.31844 | 45.86001 | 36959 ft | 447 kts | 25° |
| 2026-05-07 17:47 | 51.37474 | 45.90263 | 36951 ft | 448 kts | 25° |
| 2026-05-07 17:47 | 51.43104 | 45.94542 | 36951 ft | 448 kts | 25° |
| 2026-05-07 17:48 | 51.48733 | 45.98833 | 36961 ft | 448 kts | 25° |
| 2026-05-07 17:48 | 51.54348 | 46.03136 | 36959 ft | 448 kts | 25° |
| 2026-05-07 17:49 | 51.59957 | 46.07512 | 36963 ft | 448 kts | 26° |
| 2026-05-07 17:49 | 51.65498 | 46.12095 | 36965 ft | 448 kts | 27° |
| 2026-05-07 17:50 | 51.71028 | 46.16728 | 36964 ft | 448 kts | 27° |
| 2026-05-07 17:50 | 51.76569 | 46.21331 | 36965 ft | 448 kts | 26° |
| 2026-05-07 17:51 | 51.82116 | 46.25934 | 36962 ft | 448 kts | 26° |
| 2026-05-07 17:51 | 51.87664 | 46.30545 | 36962 ft | 448 kts | 26° |
| 2026-05-07 17:52 | 51.93211 | 46.35168 | 36960 ft | 449 kts | 26° |
| 2026-05-07 17:52 | 51.98762 | 46.39811 | 36952 ft | 449 kts | 26° |
| 2026-05-07 17:53 | 52.04309 | 46.44461 | 36958 ft | 449 kts | 26° |
| 2026-05-07 17:53 | 52.09824 | 46.49093 | 36960 ft | 449 kts | 26° |
| 2026-05-07 17:54 | 52.15374 | 46.53780 | 36958 ft | 449 kts | 26° |
| 2026-05-07 17:54 | 52.20924 | 46.58476 | 36962 ft | 449 kts | 27° |
| 2026-05-07 17:55 | 52.26470 | 46.63184 | 36968 ft | 449 kts | 27° |
| 2026-05-07 17:55 | 52.32017 | 46.67898 | 36967 ft | 449 kts | 27° |
| 2026-05-07 17:56 | 52.37557 | 46.72640 | 36967 ft | 449 kts | 27° |
| 2026-05-07 17:56 | 52.43101 | 46.77386 | 36967 ft | 449 kts | 27° |
| 2026-05-07 17:57 | 52.47708 | 46.81330 | 36969 ft | 449 kts | 27° |
| 2026-05-07 17:57 | 52.54187 | 46.86903 | 36969 ft | 450 kts | 27° |
| 2026-05-07 17:58 | 52.59724 | 46.91691 | 36970 ft | 450 kts | 27° |
| 2026-05-07 17:58 | 52.65266 | 46.96491 | 36971 ft | 450 kts | 27° |
| 2026-05-07 17:59 | 52.70807 | 47.01300 | 36979 ft | 450 kts | 27° |
| 2026-05-07 17:59 | 52.76350 | 47.06120 | 36977 ft | 450 kts | 27° |
| 2026-05-07 18:00 | 52.81887 | 47.10958 | 36978 ft | 450 kts | 27° |
| 2026-05-07 18:00 | 52.87425 | 47.15810 | 36979 ft | 450 kts | 27° |
| 2026-05-07 18:01 | 52.92966 | 47.20679 | 36989 ft | 451 kts | 27° |
| 2026-05-07 18:01 | 52.98503 | 47.25556 | 36986 ft | 451 kts | 27° |
| 2026-05-07 18:02 | 53.06804 | 47.32909 | 36983 ft | 451 kts | 27° |
| 2026-05-07 18:03 | 53.12343 | 47.37823 | 36982 ft | 451 kts | 27° |
| 2026-05-07 18:03 | 53.17881 | 47.42749 | 36988 ft | 451 kts | 27° |
| 2026-05-07 18:04 | 53.23420 | 47.47683 | 36985 ft | 451 kts | 27° |
| 2026-05-07 18:04 | 53.28915 | 47.52606 | 36994 ft | 451 kts | 27° |
| 2026-05-07 18:05 | 53.34428 | 47.57560 | 37005 ft | 449 kts | 27° |
| 2026-05-07 18:05 | 53.39922 | 47.62515 | 37002 ft | 448 kts | 27° |
| 2026-05-07 18:06 | 53.45404 | 47.67472 | 37002 ft | 447 kts | 27° |
| 2026-05-07 18:06 | 53.51049 | 47.71790 | 36998 ft | 446 kts | 20° |
| 2026-05-07 18:07 | 53.56823 | 47.75589 | 36998 ft | 446 kts | 21° |
| 2026-05-07 18:07 | 53.62594 | 47.79409 | 36998 ft | 445 kts | 21° |
| 2026-05-07 18:08 | 53.68354 | 47.83248 | 37003 ft | 445 kts | 21° |
| 2026-05-07 18:08 | 53.74286 | 47.86111 | 37004 ft | 444 kts | 13° |
| 2026-05-07 18:09 | 53.80298 | 47.88542 | 36998 ft | 444 kts | 13° |
| 2026-05-07 18:09 | 53.86105 | 47.92066 | 36997 ft | 445 kts | 23° |
| 2026-05-07 18:10 | 53.91758 | 47.96327 | 36997 ft | 445 kts | 23° |
| 2026-05-07 18:10 | 53.97420 | 48.00588 | 37000 ft | 445 kts | 23° |
| 2026-05-07 18:11 | 54.03051 | 48.04843 | 37001 ft | 445 kts | 23° |
| 2026-05-07 18:11 | 54.08705 | 48.09129 | 37001 ft | 445 kts | 23° |
| 2026-05-07 18:12 | 54.14349 | 48.13410 | 36997 ft | 445 kts | 23° |
| 2026-05-07 18:12 | 54.19996 | 48.17713 | 36994 ft | 444 kts | 23° |
| 2026-05-07 18:13 | 54.25640 | 48.22039 | 36998 ft | 444 kts | 24° |
| 2026-05-07 18:13 | 54.31071 | 48.27100 | 36993 ft | 445 kts | 28° |
| 2026-05-07 18:14 | 54.36466 | 48.32284 | 36992 ft | 445 kts | 28° |
| 2026-05-07 18:14 | 54.39176 | 48.34886 | 36636 ft | 446 kts | 28° |
| 2026-05-07 18:14 | 54.41870 | 48.37472 | 36381 ft | 443 kts | 28° |
| 2026-05-07 18:14 | 54.44566 | 48.40064 | 35832 ft | 444 kts | 28° |
| 2026-05-07 18:15 | 54.47261 | 48.42663 | 35090 ft | 445 kts | 28° |
| 2026-05-07 18:15 | 54.49961 | 48.45277 | 34472 ft | 443 kts | 29° |
| 2026-05-07 18:15 | 54.52662 | 48.47899 | 33495 ft | 449 kts | 29° |
| 2026-05-07 18:15 | 54.55363 | 48.50522 | 33120 ft | 443 kts | 29° |
| 2026-05-07 18:16 | 54.58049 | 48.53133 | 32935 ft | 443 kts | 28° |
| 2026-05-07 18:16 | 54.63428 | 48.58362 | 32977 ft | 444 kts | 28° |
| 2026-05-07 18:17 | 54.68773 | 48.63577 | 32574 ft | 439 kts | 28° |
| 2026-05-07 18:17 | 54.71455 | 48.66203 | 31633 ft | 444 kts | 29° |
| 2026-05-07 18:17 | 54.74125 | 48.68822 | 31064 ft | 439 kts | 28° |
| 2026-05-07 18:17 | 54.76776 | 48.71426 | 30321 ft | 438 kts | 29° |
| 2026-05-07 18:18 | 54.79434 | 48.74041 | 29409 ft | 440 kts | 29° |
| 2026-05-07 18:18 | 54.82101 | 48.76668 | 28400 ft | 442 kts | 29° |
| 2026-05-07 18:18 | 54.84776 | 48.79302 | 27231 ft | 441 kts | 29° |
| 2026-05-07 18:18 | 54.87453 | 48.81944 | 25653 ft | 446 kts | 29° |
| 2026-05-07 18:19 | 54.90167 | 48.84631 | 24808 ft | 453 kts | 29° |
| 2026-05-07 18:19 | 54.92921 | 48.87362 | 24385 ft | 457 kts | 29° |
| 2026-05-07 18:19 | 54.95639 | 48.90065 | 24166 ft | 437 kts | 29° |
| 2026-05-07 18:19 | 54.98208 | 48.92632 | 23987 ft | 418 kts | 29° |
| 2026-05-07 18:20 | 55.00675 | 48.95102 | 23966 ft | 399 kts | 29° |
| 2026-05-07 18:20 | 55.03029 | 48.97458 | 23976 ft | 381 kts | 29° |
| 2026-05-07 18:20 | 55.04527 | 48.98958 | 23976 ft | 370 kts | 29° |
| 2026-05-07 18:20 | 55.06716 | 49.01151 | 23878 ft | 357 kts | 29° |
| 2026-05-07 18:21 | 55.08830 | 49.03271 | 23758 ft | 345 kts | 29° |
| 2026-05-07 18:21 | 55.10876 | 49.05321 | 23641 ft | 334 kts | 29° |
| 2026-05-07 18:21 | 55.12859 | 49.07308 | 23519 ft | 323 kts | 29° |
| 2026-05-07 18:21 | 55.14783 | 49.09224 | 23294 ft | 315 kts | 27° |
| 2026-05-07 18:22 | 55.16766 | 49.10785 | 22961 ft | 311 kts | 19° |
| 2026-05-07 18:22 | 55.18126 | 49.11543 | 22727 ft | 309 kts | 13° |
| 2026-05-07 18:22 | 55.20931 | 49.12506 | 22242 ft | 306 kts | 8° |
| 2026-05-07 18:22 | 55.23019 | 49.13131 | 21983 ft | 304 kts | 8° |
| 2026-05-07 18:23 | 55.25105 | 49.13759 | 21970 ft | 304 kts | 8° |
| 2026-05-07 18:23 | 55.27193 | 49.14390 | 21977 ft | 305 kts | 8° |
| 2026-05-07 18:23 | 55.29285 | 49.15023 | 21974 ft | 306 kts | 8° |
| 2026-05-07 18:23 | 55.31414 | 49.15669 | 21357 ft | 317 kts | 8° |
| 2026-05-07 18:24 | 55.33566 | 49.16325 | 21098 ft | 308 kts | 8° |
| 2026-05-07 18:24 | 55.35643 | 49.16961 | 20696 ft | 300 kts | 8° |
| 2026-05-07 18:24 | 55.37659 | 49.17575 | 20208 ft | 296 kts | 8° |
| 2026-05-07 18:24 | 55.39681 | 49.18191 | 19699 ft | 293 kts | 8° |
| 2026-05-07 18:25 | 55.41710 | 49.18806 | 19195 ft | 290 kts | 6° |
| 2026-05-07 18:25 | 55.43688 | 49.18730 | 18717 ft | 282 kts | 341° |
| 2026-05-07 18:25 | 55.45368 | 49.17181 | 18244 ft | 276 kts | 315° |
| 2026-05-07 18:25 | 55.46445 | 49.14461 | 17694 ft | 272 kts | 289° |
| 2026-05-07 18:26 | 55.46797 | 49.11154 | 17116 ft | 272 kts | 276° |
| 2026-05-07 18:26 | 55.46923 | 49.07876 | 16580 ft | 271 kts | 274° |
| 2026-05-07 18:26 | 55.47027 | 49.04587 | 16190 ft | 265 kts | 274° |
| 2026-05-07 18:26 | 55.47123 | 49.01367 | 15770 ft | 261 kts | 274° |
| 2026-05-07 18:27 | 55.47215 | 48.98182 | 15325 ft | 259 kts | 274° |
| 2026-05-07 18:27 | 55.47302 | 48.95014 | 14876 ft | 258 kts | 274° |
| 2026-05-07 18:27 | 55.47386 | 48.91870 | 14431 ft | 256 kts | 274° |
| 2026-05-07 18:27 | 55.47467 | 48.88739 | 14005 ft | 255 kts | 274° |
| 2026-05-07 18:28 | 55.47545 | 48.85628 | 13557 ft | 254 kts | 274° |
| 2026-05-07 18:28 | 55.47620 | 48.82517 | 13212 ft | 252 kts | 274° |
| 2026-05-07 18:28 | 55.47692 | 48.79457 | 12826 ft | 248 kts | 274° |
| 2026-05-07 18:28 | 55.47760 | 48.76438 | 12378 ft | 246 kts | 274° |
| 2026-05-07 18:29 | 55.47827 | 48.73419 | 11895 ft | 246 kts | 274° |
| 2026-05-07 18:29 | 55.48001 | 48.70445 | 11420 ft | 243 kts | 289° |
| 2026-05-07 18:29 | 55.48777 | 48.67845 | 10848 ft | 242 kts | 314° |
| 2026-05-07 18:29 | 55.50143 | 48.66119 | 10268 ft | 245 kts | 341° |
| 2026-05-07 18:30 | 55.51789 | 48.65683 | 10109 ft | 237 kts | 5° |
| 2026-05-07 18:30 | 55.53351 | 48.66480 | 9877 ft | 235 kts | 29° |
| 2026-05-07 18:30 | 55.54565 | 48.68396 | 9558 ft | 237 kts | 53° |
| 2026-05-07 18:30 | 55.55492 | 48.70829 | 9052 ft | 244 kts | 54° |
| 2026-05-07 18:31 | 55.56464 | 48.73389 | 8369 ft | 258 kts | 54° |
| 2026-05-07 18:31 | 55.57462 | 48.76016 | 8031 ft | 250 kts | 54° |
| 2026-05-07 18:31 | 55.58403 | 48.78499 | 7971 ft | 236 kts | 54° |
| 2026-05-07 18:31 | 55.59290 | 48.80842 | 7976 ft | 226 kts | 54° |
| 2026-05-07 18:32 | 55.60162 | 48.83143 | 7970 ft | 224 kts | 54° |
| 2026-05-07 18:32 | 55.61032 | 48.85434 | 7972 ft | 224 kts | 54° |
| 2026-05-07 18:32 | 55.61903 | 48.87722 | 7975 ft | 224 kts | 53° |
| 2026-05-07 18:32 | 55.62774 | 48.90007 | 7973 ft | 224 kts | 53° |
| 2026-05-07 18:33 | 55.63630 | 48.92316 | 7974 ft | 224 kts | 56° |
| 2026-05-07 18:33 | 55.64160 | 48.94909 | 7967 ft | 228 kts | 84° |
| 2026-05-07 18:33 | 55.63845 | 48.97712 | 7426 ft | 245 kts | 120° |
| 2026-05-07 18:33 | 55.62566 | 48.99696 | 7036 ft | 247 kts | 160° |
| 2026-05-07 18:34 | 55.60927 | 48.99982 | 6965 ft | 232 kts | 195° |
| 2026-05-07 18:34 | 55.59516 | 48.98734 | 6977 ft | 229 kts | 217° |
| 2026-05-07 18:34 | 55.58215 | 48.97110 | 6976 ft | 230 kts | 217° |
| 2026-05-07 18:34 | 55.56913 | 48.95466 | 6974 ft | 230 kts | 218° |
| 2026-05-07 18:35 | 55.55609 | 48.93823 | 6974 ft | 230 kts | 217° |
| 2026-05-07 18:35 | 55.54320 | 48.92153 | 6973 ft | 229 kts | 225° |
| 2026-05-07 18:35 | 55.53472 | 48.89863 | 6972 ft | 223 kts | 257° |
| 2026-05-07 18:35 | 55.53414 | 48.87191 | 6974 ft | 218 kts | 287° |
| 2026-05-07 18:36 | 55.54111 | 48.84865 | 6976 ft | 216 kts | 316° |
| 2026-05-07 18:36 | 55.55355 | 48.83465 | 6975 ft | 214 kts | 345° |
| 2026-05-07 18:36 | 55.56828 | 48.83332 | 6972 ft | 215 kts | 13° |
| 2026-05-07 18:36 | 55.58177 | 48.84470 | 6978 ft | 218 kts | 33° |
| 2026-05-07 18:37 | 55.59424 | 48.86006 | 6973 ft | 219 kts | 34° |
| 2026-05-07 18:37 | 55.60663 | 48.87570 | 6976 ft | 219 kts | 34° |
| 2026-05-07 18:37 | 55.61904 | 48.89139 | 6973 ft | 219 kts | 34° |
| 2026-05-07 18:37 | 55.63132 | 48.90724 | 6972 ft | 219 kts | 39° |
| 2026-05-07 18:38 | 55.63993 | 48.92937 | 6970 ft | 223 kts | 71° |
| 2026-05-07 18:38 | 55.64050 | 48.95663 | 6975 ft | 227 kts | 105° |
| 2026-05-07 18:38 | 55.63245 | 48.98053 | 6975 ft | 231 kts | 139° |
| 2026-05-07 18:38 | 55.61818 | 48.99352 | 6664 ft | 239 kts | 173° |
| 2026-05-07 18:39 | 55.60174 | 48.98884 | 6114 ft | 245 kts | 212° |
| 2026-05-07 18:39 | 55.58805 | 48.97203 | 5973 ft | 234 kts | 218° |
| 2026-05-07 18:39 | 55.57491 | 48.95546 | 5975 ft | 235 kts | 217° |
| 2026-05-07 18:39 | 55.56154 | 48.93871 | 5972 ft | 237 kts | 217° |
| 2026-05-07 18:40 | 55.54810 | 48.92171 | 5975 ft | 239 kts | 221° |
| 2026-05-07 18:40 | 55.53836 | 48.89863 | 5969 ft | 235 kts | 255° |
| 2026-05-07 18:40 | 55.53763 | 48.87056 | 5973 ft | 231 kts | 288° |
| 2026-05-07 18:40 | 55.54575 | 48.84685 | 5975 ft | 227 kts | 321° |
| 2026-05-07 18:41 | 55.55976 | 48.83484 | 5975 ft | 227 kts | 352° |
| 2026-05-07 18:41 | 55.57544 | 48.83763 | 5749 ft | 235 kts | 20° |
| 2026-05-07 18:41 | 55.58974 | 48.85297 | 5100 ft | 248 kts | 35° |
| 2026-05-07 18:41 | 55.60382 | 48.87125 | 4603 ft | 253 kts | 36° |
| 2026-05-07 18:42 | 55.61792 | 48.88962 | 4202 ft | 248 kts | 36° |
| 2026-05-07 18:42 | 55.63154 | 48.90731 | 3881 ft | 237 kts | 36° |
| 2026-05-07 18:42 | 55.64460 | 48.92358 | 3667 ft | 222 kts | 34° |
| 2026-05-07 18:42 | 55.65710 | 48.93870 | 3469 ft | 215 kts | 34° |
| 2026-05-07 18:43 | 55.66950 | 48.95356 | 3270 ft | 214 kts | 34° |
| 2026-05-07 18:43 | 55.68144 | 48.96867 | 3059 ft | 207 kts | 44° |
| 2026-05-07 18:43 | 55.69032 | 48.98837 | 2873 ft | 203 kts | 63° |
| 2026-05-07 18:43 | 55.69492 | 49.01157 | 2720 ft | 197 kts | 82° |
| 2026-05-07 18:44 | 55.69510 | 49.03514 | 2630 ft | 188 kts | 101° |
| 2026-05-07 18:44 | 55.69139 | 49.05641 | 2649 ft | 174 kts | 117° |
| 2026-05-07 18:44 | 55.68511 | 49.07425 | 2586 ft | 168 kts | 125° |
| 2026-05-07 18:44 | 55.67860 | 49.09119 | 2444 ft | 165 kts | 125° |
| 2026-05-07 18:45 | 55.67219 | 49.10786 | 2238 ft | 162 kts | 125° |
| 2026-05-07 18:45 | 55.66610 | 49.12371 | 2030 ft | 153 kts | 124° |
| 2026-05-07 18:45 | 55.66027 | 49.13884 | 1838 ft | 145 kts | 125° |
| 2026-05-07 18:45 | 55.65471 | 49.15328 | 1663 ft | 140 kts | 124° |
| 2026-05-07 18:46 | 55.64926 | 49.16742 | 1472 ft | 139 kts | 124° |
| 2026-05-07 18:46 | 55.64382 | 49.18152 | 1289 ft | 139 kts | 124° |
| 2026-05-07 18:46 | 55.63838 | 49.19563 | 1109 ft | 139 kts | 124° |
| 2026-05-07 18:46 | 55.63289 | 49.20978 | 944 ft | 140 kts | 125° |
| 2026-05-07 18:47 | 55.62731 | 49.22416 | 763 ft | 140 kts | 124° |
| 2026-05-07 18:47 | 55.62195 | 49.23819 | 585 ft | 139 kts | 124° |
| 2026-05-07 18:47 | 55.61651 | 49.25229 | 460 ft | 138 kts | 124° |
| 2026-05-07 18:47 | 55.61121 | 49.26588 | 411 ft | 121 kts | 124° |
| 2026-05-07 18:48 | 55.60809 | 49.27397 | 411 ft | 36 kts | 124° |
| 2026-05-07 18:48 | 55.60677 | 49.27735 | 416 ft | 34 kts | 124° |
| 2026-05-07 18:48 | 55.60533 | 49.28107 | 415 ft | 39 kts | 124° |
| 2026-05-07 18:48 | 55.60401 | 49.28451 | 411 ft | 21 kts | 124° |
| 2026-05-07 18:49 | 55.60432 | 49.28626 | 417 ft | 14 kts | 32° |
| 2026-05-07 18:49 | 55.60467 | 49.28668 | 413 ft | 1 kts | 34° |
| 2026-05-07 18:49 | 55.60471 | 49.28673 | 412 ft | 0 kts | 34° |
| 2026-05-07 18:50 | 55.60473 | 49.28675 | 412 ft | 3 kts | 34° |
| 2026-05-07 18:51 | 55.60509 | 49.28727 | 414 ft | 8 kts | 50° |
| 2026-05-07 18:51 | 55.60513 | 49.28810 | 410 ft | 8 kts | 112° |
| 2026-05-07 18:51 | 55.60473 | 49.28920 | 413 ft | 12 kts | 124° |
| 2026-05-07 18:51 | 55.60423 | 49.29050 | 411 ft | 14 kts | 124° |
| 2026-05-07 18:52 | 55.60365 | 49.29199 | 407 ft | 16 kts | 124° |
| 2026-05-07 18:52 | 55.60301 | 49.29365 | 413 ft | 17 kts | 124° |
| 2026-05-07 18:52 | 55.60229 | 49.29551 | 413 ft | 19 kts | 124° |
| 2026-05-07 18:52 | 55.60152 | 49.29748 | 410 ft | 14 kts | 124° |
| 2026-05-07 18:53 | 55.60110 | 49.29890 | 411 ft | 13 kts | 91° |
| 2026-05-07 18:53 | 55.60171 | 49.29959 | 413 ft | 11 kts | 342° |
| 2026-05-07 18:53 | 55.60237 | 49.29905 | 416 ft | 10 kts | 338° |
| 2026-05-07 18:53 | 55.60298 | 49.29881 | 412 ft | 8 kts | 357° |
| 2026-05-07 18:54 | 55.60352 | 49.29894 | 409 ft | 8 kts | 15° |
| 2026-05-07 18:54 | 55.60413 | 49.29952 | 416 ft | 11 kts | 33° |
| 2026-05-07 18:54 | 55.60474 | 49.30024 | 414 ft | 10 kts | 34° |
| 2026-05-07 18:54 | 55.60526 | 49.30087 | 412 ft | 8 kts | 33° |
| 2026-05-07 18:55 | 55.60574 | 49.30089 | 407 ft | 7 kts | 332° |
| 2026-05-07 18:55 | 55.60600 | 49.30031 | 414 ft | 7 kts | 304° |
| 2026-05-07 18:55 | 55.60632 | 49.29950 | 406 ft | 8 kts | 304° |
| 2026-05-07 18:55 | 55.60668 | 49.29909 | 413 ft | 6 kts | 4° |
| 2026-05-07 18:56 | 55.60699 | 49.29939 | 412 ft | 4 kts | 32° |
| 2026-05-07 18:56 | 55.60719 | 49.29965 | 416 ft | 0 kts | 37° |